createdAt,value
2022-08-22T00:01:44.947Z,99240.08
2022-08-22T00:02:41.623Z,99216.92
2022-08-22T00:02:49.564Z,99222.64
2022-08-22T00:03:01.690Z,99224.08
2022-08-22T00:03:04.494Z,99223.75
2022-08-22T00:03:06.789Z,99222.02
2022-08-22T00:04:25.202Z,99241.95
2022-08-22T00:07:05.332Z,99241.09
2022-08-22T00:09:42.388Z,99241.04
2022-08-22T00:12:24.924Z,99243.99
2022-08-22T00:15:07.096Z,99246.42
2022-08-22T00:17:49.593Z,99245.96
2022-08-22T00:20:35.982Z,99242.84
2022-08-22T00:23:12.019Z,99248.92
2022-08-22T00:25:58.980Z,99246.92
2022-08-22T00:28:50.122Z,99246.25
2022-08-22T00:31:32.145Z,99240.33
2022-08-22T00:34:10.521Z,99238.65
2022-08-22T00:37:10.939Z,99236.13
2022-08-22T00:40:03.558Z,99234.19
2022-08-22T00:42:53.543Z,99236.13
2022-08-22T00:45:33.525Z,99235.34
2022-08-22T00:48:33.847Z,99236.94
2022-08-22T00:51:18.697Z,99235.93
2022-08-22T00:54:25.746Z,99234.29
2022-08-22T00:57:02.933Z,99237.74
2022-08-22T01:00:14.120Z,99233.89
2022-08-22T01:03:13.786Z,99237.68
2022-08-22T01:05:57.522Z,99241.20
2022-08-22T01:08:37.923Z,99244.84
2022-08-22T01:11:26.543Z,99246.60
2022-08-22T01:14:35.405Z,99248.69
2022-08-22T01:17:29.631Z,99248.83
2022-08-22T01:20:00.816Z,99252.33
2022-08-22T01:22:41.185Z,99251.44
2022-08-22T01:25:30.775Z,99253.05
2022-08-22T01:28:27.533Z,99252.30
2022-08-22T01:31:20.783Z,99251.60
2022-08-22T01:34:07.166Z,99249.14
2022-08-22T01:37:21.091Z,99250.25
2022-08-22T01:40:09.966Z,99249.86
2022-08-22T01:42:40.970Z,99251.06
2022-08-22T01:45:14.687Z,99256.29
2022-08-22T01:47:48.421Z,99257.54
2022-08-22T01:50:34.625Z,99260.73
2022-08-22T01:53:09.051Z,99259.23
2022-08-22T01:55:59.524Z,99260.84
2022-08-22T01:58:31.111Z,99264.77
2022-08-22T02:01:11.065Z,99266.91
2022-08-22T02:03:51.420Z,99265.02
2022-08-22T02:06:45.977Z,99263.30
2022-08-22T02:09:45.230Z,99267.92
2022-08-22T02:12:22.296Z,99263.29
2022-08-22T02:15:43.945Z,99262.73
2022-08-22T02:18:27.224Z,99261.84
2022-08-22T02:21:27.618Z,99258.33
2022-08-22T02:24:03.212Z,99256.84
2022-08-22T02:26:37.029Z,99256.77
2022-08-22T02:29:09.176Z,99253.52
2022-08-22T02:31:48.022Z,99249.43
2022-08-22T02:34:39.851Z,99248.58
2022-08-22T02:37:21.916Z,99250.98
2022-08-22T02:40:09.284Z,99249.55
2022-08-22T02:42:43.196Z,99251.15
2022-08-22T02:45:17.132Z,99251.42
2022-08-22T02:48:19.800Z,99253.96
2022-08-22T02:51:16.939Z,99253.70
2022-08-22T02:53:50.727Z,99256.02
2022-08-22T02:56:28.390Z,99257.84
2022-08-22T02:59:12.914Z,99261.13
2022-08-22T03:01:45.740Z,99262.66
2022-08-22T03:04:27.054Z,99266.27
2022-08-22T03:07:13.458Z,99275.41
2022-08-22T03:10:00.171Z,99275.88
2022-08-22T03:13:09.594Z,99277.89
2022-08-22T03:16:13.390Z,99280.67
2022-08-22T03:18:48.727Z,99281.05
2022-08-22T03:21:28.491Z,99277.25
2022-08-22T03:24:08.357Z,99275.61
2022-08-22T03:26:53.288Z,99278.56
2022-08-22T03:29:31.093Z,99279.76
2022-08-22T03:32:24.244Z,99277.11
2022-08-22T03:35:08.509Z,99278.11
2022-08-22T03:37:43.037Z,99277.98
2022-08-22T03:40:20.295Z,99275.59
2022-08-22T03:43:10.084Z,99276.53
2022-08-22T03:45:59.983Z,99278.55
2022-08-22T03:49:02.631Z,99281.91
2022-08-22T03:51:49.105Z,99278.00
2022-08-22T03:54:26.557Z,99276.27
2022-08-22T03:57:07.805Z,99281.83
2022-08-22T04:00:12.180Z,99280.90
2022-08-22T04:02:55.422Z,99289.40
2022-08-22T04:05:53.295Z,99295.90
2022-08-22T04:08:55.750Z,99301.42
2022-08-22T04:11:49.980Z,99314.50
2022-08-22T04:14:33.234Z,99317.11
2022-08-22T04:17:20.645Z,99313.75
2022-08-22T04:20:21.095Z,99314.08
2022-08-22T04:23:26.845Z,99316.26
2022-08-22T04:26:29.670Z,99315.23
2022-08-22T04:29:08.399Z,99313.30
2022-08-22T04:31:46.609Z,99314.45
2022-08-22T04:34:26.984Z,99311.38
2022-08-22T04:37:01.979Z,99307.41
2022-08-22T04:39:45.558Z,99302.50
2022-08-22T04:42:32.561Z,99304.36
2022-08-22T04:45:04.778Z,99304.39
2022-08-22T04:47:35.851Z,99303.38
2022-08-22T04:50:16.005Z,99300.55
2022-08-22T04:52:47.005Z,99304.44
2022-08-22T04:55:42.603Z,99306.10
2022-08-22T04:58:45.739Z,99307.05
2022-08-22T05:01:16.963Z,99308.84
2022-08-22T05:03:51.761Z,99314.54
2022-08-22T05:06:26.634Z,99319.67
2022-08-22T05:09:00.657Z,99321.31
2022-08-22T05:11:31.741Z,99318.79
2022-08-22T05:14:09.070Z,99317.02
2022-08-22T05:16:41.301Z,99314.38
2022-08-22T05:19:24.972Z,99317.50
2022-08-22T05:21:56.172Z,99318.80
2022-08-22T05:24:32.439Z,99316.34
2022-08-22T05:27:18.413Z,99325.02
2022-08-22T05:29:53.876Z,99322.46
2022-08-22T05:32:31.151Z,99320.84
2022-08-22T05:35:05.009Z,99324.27
2022-08-22T05:37:53.548Z,99328.33
2022-08-22T05:40:26.387Z,99325.95
2022-08-22T05:42:56.937Z,99326.09
2022-08-22T05:45:27.609Z,99328.48
2022-08-22T05:48:18.643Z,99325.66
2022-08-22T05:50:58.865Z,99322.83
2022-08-22T05:53:41.616Z,99327.41
2022-08-22T05:56:22.524Z,99331.67
2022-08-22T05:58:56.979Z,99330.15
2022-08-22T06:01:32.444Z,99328.05
2022-08-22T06:04:12.690Z,99328.11
2022-08-22T06:06:50.435Z,99326.16
2022-08-22T06:09:35.327Z,99329.38
2022-08-22T06:12:26.568Z,99328.86
2022-08-22T06:15:11.686Z,99329.86
2022-08-22T06:18:01.265Z,99332.35
2022-08-22T06:20:46.267Z,99336.30
2022-08-22T06:23:26.744Z,99338.63
2022-08-22T06:25:59.666Z,99342.67
2022-08-22T06:31:29.055Z,99342.30
2022-08-22T06:34:23.096Z,99337.52
2022-08-22T06:36:53.292Z,99343.91
2022-08-22T06:39:24.122Z,99343.61
2022-08-22T06:42:04.942Z,99345.23
2022-08-22T06:44:38.478Z,99343.20
2022-08-22T06:47:08.774Z,99339.12
2022-08-22T06:49:39.315Z,99341.08
2022-08-22T06:52:25.224Z,99346.62
2022-08-22T06:55:06.245Z,99345.00
2022-08-22T06:57:46.633Z,99347.77
2022-08-22T07:00:17.344Z,99347.80
2022-08-22T07:03:23.864Z,99350.53
2022-08-22T07:05:55.277Z,99348.27
2022-08-22T07:08:26.682Z,99349.46
2022-08-22T07:11:17.654Z,99351.79
2022-08-22T07:13:57.402Z,99351.36
2022-08-22T07:16:33.099Z,99348.97
2022-08-22T07:19:01.612Z,99346.30
2022-08-22T07:21:43.685Z,99345.07
2022-08-22T07:24:22.230Z,99352.02
2022-08-22T07:26:50.249Z,99355.11
2022-08-22T07:29:44.648Z,99353.66
2022-08-22T07:32:28.294Z,99352.60
2022-08-22T07:35:18.124Z,99351.27
2022-08-22T07:38:00.048Z,99354.04
2022-08-22T07:40:35.893Z,99349.84
2022-08-22T07:43:17.738Z,99351.07
2022-08-22T07:46:21.053Z,99351.64
2022-08-22T07:49:08.582Z,99352.35
2022-08-22T07:51:48.261Z,99346.45
2022-08-22T07:54:48.771Z,99350.42
2022-08-22T07:57:38.193Z,99349.79
2022-08-22T08:00:15.155Z,99350.04
2022-08-22T08:03:00.794Z,99345.91
2022-08-22T08:05:33.116Z,99349.88
2022-08-22T08:08:15.579Z,99347.02
2022-08-22T08:10:45.509Z,99352.91
2022-08-22T08:13:21.603Z,99348.52
2022-08-22T08:15:54.118Z,99351.50
2022-08-22T08:18:26.757Z,99342.42
2022-08-22T08:21:00.584Z,99349.11
2022-08-22T08:23:31.658Z,99343.23
2022-08-22T08:26:17.581Z,99342.06
2022-08-22T08:28:51.486Z,99340.72
2022-08-22T08:31:28.743Z,99337.36
2022-08-22T08:34:08.597Z,99340.95
2022-08-22T08:36:53.334Z,99339.19
2022-08-22T08:39:35.429Z,99336.63
2022-08-22T08:42:32.346Z,99338.63
2022-08-22T08:45:56.368Z,99334.18
2022-08-22T08:48:47.678Z,99336.26
2022-08-22T08:51:40.539Z,99335.91
2022-08-22T08:55:19.727Z,99336.13
2022-08-22T08:58:10.397Z,99332.35
2022-08-22T09:00:42.500Z,99328.71
2022-08-22T09:03:41.819Z,99327.23
2022-08-22T09:06:16.810Z,99326.81
2022-08-22T09:09:20.606Z,99327.34
2022-08-22T09:12:14.776Z,99329.84
2022-08-22T09:14:47.129Z,99328.60
2022-08-22T09:17:40.213Z,99324.39
2022-08-22T09:20:24.461Z,99321.21
2022-08-22T09:23:13.197Z,99317.48
2022-08-22T09:26:02.070Z,99315.46
2022-08-22T09:28:42.065Z,99312.73
2022-08-22T09:32:00.176Z,99310.27
2022-08-22T09:34:41.333Z,99304.41
2022-08-22T09:37:20.177Z,99300.41
2022-08-22T09:40:16.196Z,99302.29
2022-08-22T09:43:06.817Z,99305.78
2022-08-22T09:45:50.287Z,99306.27
2022-08-22T09:48:46.961Z,99295.61
2022-08-22T09:51:38.856Z,99289.60
2022-08-22T09:54:16.336Z,99283.09
2022-08-22T09:57:13.815Z,99279.16
2022-08-22T09:59:45.766Z,99278.34
2022-08-22T10:02:43.336Z,99281.16
2022-08-22T10:06:00.578Z,99281.98
2022-08-22T10:08:45.880Z,99279.71
2022-08-22T10:11:15.428Z,99271.48
2022-08-22T10:14:02.423Z,99265.33
2022-08-22T10:16:53.421Z,99264.97
2022-08-22T10:19:43.092Z,99273.90
2022-08-22T10:22:32.733Z,99275.37
2022-08-22T10:25:24.137Z,99278.39
2022-08-22T10:28:10.604Z,99285.45
2022-08-22T10:30:54.995Z,99284.66
2022-08-22T10:33:50.029Z,99288.49
2022-08-22T10:36:31.547Z,99284.43
2022-08-22T10:39:04.418Z,99277.20
2022-08-22T10:41:55.932Z,99269.28
2022-08-22T10:44:49.306Z,99268.84
2022-08-22T10:47:59.540Z,99269.48
2022-08-22T10:50:36.973Z,99260.00
2022-08-22T10:53:30.767Z,99255.44
2022-08-22T10:56:07.512Z,99253.67
2022-08-22T10:59:04.133Z,99251.11
2022-08-22T11:01:41.727Z,99247.59
2022-08-22T11:04:31.947Z,99251.00
2022-08-22T11:07:17.129Z,99255.18
2022-08-22T11:09:57.474Z,99251.95
2022-08-22T11:12:34.680Z,99255.70
2022-08-22T11:15:49.704Z,99255.66
2022-08-22T11:18:25.453Z,99251.41
2022-08-22T11:21:08.436Z,99260.15
2022-08-22T11:23:37.502Z,99269.23
2022-08-22T11:26:41.695Z,99270.66
2022-08-22T11:29:44.311Z,99265.82
2022-08-22T11:32:49.798Z,99263.48
2022-08-22T11:35:56.216Z,99266.34
2022-08-22T11:38:50.282Z,99270.34
2022-08-22T11:41:30.402Z,99271.45
2022-08-22T11:44:12.909Z,99265.20
2022-08-22T11:46:46.218Z,99262.91
2022-08-22T11:49:25.777Z,99267.46
2022-08-22T11:51:58.028Z,99271.09
2022-08-22T11:54:35.872Z,99269.03
2022-08-22T11:57:09.199Z,99276.02
2022-08-22T12:00:07.158Z,99276.27
2022-08-22T12:02:47.924Z,99269.83
2022-08-22T12:05:26.391Z,99261.94
2022-08-22T12:08:06.464Z,99254.17
2022-08-22T12:10:43.068Z,99254.07
2022-08-22T12:13:41.925Z,99251.94
2022-08-22T12:16:23.309Z,99248.95
2022-08-22T12:19:23.830Z,99245.33
2022-08-22T12:22:10.672Z,99244.48
2022-08-22T12:25:06.180Z,99246.68
2022-08-22T12:28:05.589Z,99241.08
2022-08-22T12:30:39.707Z,99236.45
2022-08-22T12:33:42.208Z,99235.89
2022-08-22T12:36:20.215Z,99232.63
2022-08-22T12:39:20.698Z,99228.31
2022-08-22T12:42:21.386Z,99227.02
2022-08-22T12:45:20.237Z,99223.44
2022-08-22T12:48:29.721Z,99226.73
2022-08-22T12:51:22.932Z,99227.02
2022-08-22T12:54:23.102Z,99231.68
2022-08-22T12:57:00.377Z,99234.90
2022-08-22T12:59:41.721Z,99228.33
2022-08-22T13:02:18.039Z,99224.85
2022-08-22T13:04:55.431Z,99213.81
2022-08-22T13:07:35.186Z,99207.29
2022-08-22T13:10:41.643Z,99208.44
2022-08-22T13:13:36.928Z,99212.48
2022-08-22T13:16:11.713Z,99218.91
2022-08-22T13:18:53.471Z,99223.58
2022-08-22T13:21:31.470Z,99223.34
2022-08-22T13:24:11.916Z,99224.34
2022-08-22T13:26:49.211Z,99222.80
2022-08-22T13:29:27.515Z,99223.06
2022-08-22T13:32:16.818Z,99221.46
2022-08-22T13:34:52.440Z,99217.83
2022-08-22T13:37:31.827Z,99220.27
2022-08-22T13:40:04.641Z,99219.95
2022-08-22T13:42:43.965Z,99216.38
2022-08-22T13:45:24.202Z,99222.02
2022-08-22T13:47:58.556Z,99224.41
2022-08-22T13:50:37.517Z,99228.50
2022-08-22T13:54:21.538Z,99236.59
2022-08-22T13:57:18.780Z,99245.95
2022-08-22T14:00:06.347Z,99249.40
2022-08-22T14:02:47.064Z,99250.17
2022-08-22T14:05:28.717Z,99254.13
2022-08-22T14:08:12.893Z,99260.80
2022-08-22T14:10:55.171Z,99261.48
2022-08-22T14:13:36.726Z,99262.77
2022-08-22T14:16:10.607Z,99261.23
2022-08-22T14:18:50.260Z,99258.77
2022-08-22T14:21:42.669Z,99256.73
2022-08-22T14:24:45.356Z,99256.36
2022-08-22T14:27:26.980Z,99252.63
2022-08-22T14:30:20.461Z,99253.08
2022-08-22T14:32:54.490Z,99253.30
2022-08-22T14:35:35.245Z,99256.17
2022-08-22T14:38:30.082Z,99255.93
2022-08-22T14:41:14.540Z,99258.03
2022-08-22T14:43:49.574Z,99256.80
2022-08-22T14:46:33.783Z,99258.36
2022-08-22T14:49:11.530Z,99261.61
2022-08-22T14:51:51.316Z,99263.96
2022-08-22T14:54:22.776Z,99260.48
2022-08-22T14:56:59.688Z,99253.66
2022-08-22T14:59:50.282Z,99253.29
2022-08-22T15:02:37.111Z,99252.27
2022-08-22T15:05:21.312Z,99254.38
2022-08-22T15:07:59.535Z,99255.47
2022-08-22T15:10:34.277Z,99256.89
2022-08-22T15:13:08.078Z,99259.89
2022-08-22T15:15:49.458Z,99256.66
2022-08-22T15:18:27.721Z,99263.00
2022-08-22T15:21:12.881Z,99264.36
2022-08-22T15:23:46.805Z,99266.55
2022-08-22T15:26:30.817Z,99264.59
2022-08-22T15:29:10.618Z,99262.00
2022-08-22T15:31:46.769Z,99264.27
2022-08-22T15:34:34.574Z,99261.83
2022-08-22T15:37:16.503Z,99258.67
2022-08-22T15:40:27.332Z,99258.66
2022-08-22T15:43:00.174Z,99253.57
2022-08-22T15:45:36.055Z,99256.90
2022-08-22T15:48:10.711Z,99256.24
2022-08-22T15:50:55.056Z,99254.78
2022-08-22T15:53:45.787Z,99252.58
2022-08-22T15:56:15.430Z,99249.19
2022-08-22T15:58:52.759Z,99252.50
2022-08-22T16:01:24.710Z,99252.09
2022-08-22T16:04:03.120Z,99255.98
2022-08-22T16:06:51.411Z,99256.03
2022-08-22T16:09:46.624Z,99250.23
2022-08-22T16:12:33.006Z,99251.48
2022-08-22T16:15:05.395Z,99256.84
2022-08-22T16:17:46.017Z,99263.48
2022-08-22T16:20:21.300Z,99265.52
2022-08-22T16:22:58.804Z,99269.79
2022-08-22T16:25:44.971Z,99269.55
2022-08-22T16:28:41.413Z,99274.09
2022-08-22T16:31:27.722Z,99281.66
2022-08-22T16:34:16.498Z,99281.48
2022-08-22T16:36:47.393Z,99283.13
2022-08-22T16:39:21.459Z,99284.12
2022-08-22T16:41:51.855Z,99281.40
2022-08-22T16:44:29.219Z,99276.35
2022-08-22T16:47:19.484Z,99276.67
2022-08-22T16:49:50.518Z,99278.19
2022-08-22T16:52:22.387Z,99280.47
2022-08-22T16:54:55.112Z,99282.77
2022-08-22T16:57:38.154Z,99282.70
2022-08-22T17:00:22.799Z,99282.90
2022-08-22T17:03:29.235Z,99281.23
2022-08-22T17:06:28.704Z,99287.90
2022-08-22T17:09:28.020Z,99287.70
2022-08-22T17:12:44.131Z,99295.45
2022-08-22T17:15:55.335Z,99300.15
2022-08-22T17:19:19.537Z,99308.51
2022-08-22T17:22:02.378Z,99317.08
2022-08-22T17:24:41.242Z,99330.52
2022-08-22T17:27:30.404Z,99344.84
2022-08-22T17:30:09.362Z,99345.98
2022-08-22T17:32:59.760Z,99342.89
2022-08-22T17:36:26.566Z,99333.80
2022-08-22T17:38:58.521Z,99335.73
2022-08-22T17:41:47.351Z,99344.27
2022-08-22T17:44:30.225Z,99346.19
2022-08-22T17:47:15.039Z,99338.70
2022-08-22T17:49:45.117Z,99332.02
2022-08-22T17:52:36.716Z,99331.83
2022-08-22T17:55:25.771Z,99339.12
2022-08-22T17:58:02.754Z,99346.67
2022-08-22T18:00:35.941Z,99347.83
2022-08-22T18:03:24.603Z,99342.73
2022-08-22T18:05:58.817Z,99339.16
2022-08-22T18:12:05.994Z,99349.92
2022-08-22T18:14:45.517Z,99354.10
2022-08-22T18:17:25.883Z,99350.29
2022-08-22T18:20:00.176Z,99356.11
2022-08-22T18:22:40.156Z,99365.20
2022-08-22T18:25:13.761Z,99379.67
2022-08-22T18:28:03.570Z,99385.56
2022-08-22T18:30:39.006Z,99382.35
2022-08-22T18:33:22.980Z,99374.38
2022-08-22T18:36:11.084Z,99385.73
2022-08-22T18:38:51.886Z,99405.86
2022-08-22T18:41:33.203Z,99412.96
2022-08-22T18:44:16.495Z,99401.36
2022-08-22T18:46:47.921Z,99385.89
2022-08-22T18:49:43.402Z,99374.59
2022-08-22T18:52:22.006Z,99376.82
2022-08-22T18:54:50.074Z,99378.11
2022-08-22T18:57:31.025Z,99384.23
2022-08-22T19:00:16.931Z,99387.79
2022-08-22T19:03:27.277Z,99400.45
2022-08-22T19:06:17.280Z,99479.26
2022-08-22T19:09:25.373Z,99496.10
2022-08-22T19:12:31.483Z,99497.17
2022-08-22T19:15:35.450Z,99499.31
2022-08-22T19:18:28.683Z,99505.80
2022-08-22T19:21:38.695Z,99497.70
2022-08-22T19:24:28.827Z,99484.62
2022-08-22T19:27:18.737Z,99482.05
2022-08-22T19:29:46.898Z,99487.55
2022-08-22T19:32:46.498Z,99480.69
2022-08-22T19:35:21.950Z,99466.50
2022-08-22T19:37:59.669Z,99461.27
2022-08-22T19:40:46.526Z,99459.12
2022-08-22T19:43:30.290Z,99468.25
2022-08-22T19:46:01.239Z,99481.40
2022-08-22T19:48:44.713Z,99488.45
2022-08-22T19:51:25.336Z,99495.34
2022-08-22T19:54:21.939Z,99524.44
2022-08-22T19:57:01.228Z,99606.98
2022-08-22T20:00:19.914Z,99625.69
2022-08-22T20:03:22.242Z,99539.89
2022-08-22T20:06:02.139Z,99481.02
2022-08-22T20:08:45.317Z,99505.80
2022-08-22T20:11:42.801Z,99490.71
2022-08-22T20:14:24.993Z,99492.50
2022-08-22T20:17:33.830Z,99481.70
2022-08-22T20:20:27.938Z,99463.98
2022-08-22T20:23:05.359Z,99468.14
2022-08-22T20:25:44.212Z,99493.37
2022-08-22T20:28:29.880Z,99516.13
2022-08-22T20:31:02.381Z,99513.34
2022-08-22T20:33:38.047Z,99512.58
2022-08-22T20:36:16.738Z,99522.98
2022-08-22T20:39:19.798Z,99529.90
2022-08-22T20:41:56.545Z,99529.95
2022-08-22T20:44:33.238Z,99528.73
2022-08-22T20:47:06.178Z,99510.27
2022-08-22T20:49:47.361Z,99485.24
2022-08-22T20:52:32.672Z,99459.84
2022-08-22T20:55:12.248Z,99450.30
2022-08-22T20:58:06.171Z,99450.27
2022-08-22T21:00:45.598Z,99447.44
2022-08-22T21:03:25.216Z,99442.63
2022-08-22T21:05:53.295Z,99443.81
2022-08-22T21:08:27.072Z,99476.05
2022-08-22T21:11:18.990Z,99494.41
2022-08-22T21:13:48.648Z,99496.21
2022-08-22T21:16:31.415Z,99504.14
2022-08-22T21:19:03.828Z,99521.19
2022-08-22T21:21:34.477Z,99521.15
2022-08-22T21:24:06.494Z,99508.59
2022-08-22T21:26:39.443Z,99489.73
2022-08-22T21:29:13.596Z,99477.81
2022-08-22T21:31:49.420Z,99468.25
2022-08-22T21:34:23.976Z,99447.35
2022-08-22T21:36:55.434Z,99443.04
2022-08-22T21:39:35.736Z,99454.17
2022-08-22T21:42:03.795Z,99479.16
2022-08-22T21:44:31.890Z,99492.09
2022-08-22T21:47:36.329Z,99485.35
2022-08-22T21:50:18.994Z,99487.23
2022-08-22T21:52:56.099Z,99484.16
2022-08-22T21:55:31.830Z,99480.96
2022-08-22T21:58:10.478Z,99477.11
2022-08-22T22:00:49.562Z,99479.20
2022-08-22T22:03:23.119Z,99466.23
2022-08-22T22:05:54.929Z,99465.06
2022-08-22T22:08:23.565Z,99474.13
2022-08-22T22:11:08.366Z,99479.08
2022-08-22T22:13:37.454Z,99479.81
2022-08-22T22:16:07.621Z,99472.21
2022-08-22T22:18:38.209Z,99468.69
2022-08-22T22:21:06.846Z,99470.42
2022-08-22T22:23:35.495Z,99476.39
2022-08-22T22:26:06.130Z,99480.79
2022-08-22T22:28:41.067Z,99481.19
2022-08-22T22:31:10.107Z,99485.20
2022-08-22T22:33:42.622Z,99491.03
2022-08-22T22:36:20.138Z,99494.80
2022-08-22T22:38:48.815Z,99501.88
2022-08-22T22:41:25.327Z,99502.73
2022-08-22T22:43:55.375Z,99500.17
2022-08-22T22:46:24.405Z,99496.63
2022-08-22T22:48:53.188Z,99495.92
2022-08-22T22:51:21.550Z,99493.96
2022-08-22T22:53:50.009Z,99492.44
2022-08-22T22:56:21.734Z,99497.03
2022-08-22T22:59:00.630Z,99502.08
2022-08-22T23:01:29.487Z,99502.76
2022-08-22T23:04:03.330Z,99505.27
2022-08-22T23:06:34.779Z,99505.29
2022-08-22T23:09:03.392Z,99507.80
2022-08-22T23:11:31.564Z,99507.08
2022-08-22T23:14:01.661Z,99513.27
2022-08-22T23:16:34.003Z,99513.47
2022-08-22T23:19:13.637Z,99515.27
2022-08-22T23:21:43.031Z,99518.84
2022-08-22T23:24:12.048Z,99514.09
2022-08-22T23:26:41.207Z,99515.98
2022-08-22T23:29:10.732Z,99516.50
2022-08-22T23:31:43.870Z,99515.27
2022-08-22T23:34:22.824Z,99515.02
2022-08-22T23:36:53.522Z,99511.89
2022-08-22T23:39:24.221Z,99515.27
2022-08-22T23:41:52.771Z,99520.27
2022-08-22T23:44:24.342Z,99520.73
2022-08-22T23:46:53.349Z,99521.41
2022-08-22T23:49:21.736Z,99518.13
2022-08-22T23:51:50.544Z,99521.17
2022-08-22T23:54:19.155Z,99515.55
2022-08-22T23:56:50.644Z,99514.43
2022-08-22T23:59:22.586Z,99516.77
